Aviation Digital Data Service (ADDS)

Output produced by METARs form (1906 UTC 25 June 2017)
found at http://www.aviationweather.gov/adds/metars/
 
MZBZ 241900Z 12008KT 9999 SCT024 31/25 A2996 Q1014 NOSIG
TAF MZBZ 251500Z 2518/2618 09008KT 9999 SCT022